Time;durP1;ratioP1;P1;durP2;ratioP2;P2;SDS_P1;SDS_P2;PMS_P1;PMS_P2;Temp;Humidity;BMP_temperature;BMP_pressure;BME280_temperature;BME280_humidity;BME280_pressure;Samples;Min_cycle;Max_cycle;Signal;HPM_P1;HPM_P2
2022/12/19 00:00:45;;;;;;;;;;;;;;;;;;2081630;28;19917;-90
2022/12/19 00:01:45;;;;;;;;;;;;;;;;;;2073196;28;20268;-90
2022/12/19 00:02:45;;;;;;;;;;;;;;;;;;2081664;28;19917;-90
2022/12/19 00:03:46;;;;;;;;;;;;;;;;;;2090859;28;19956;-89
2022/12/19 00:04:47;;;;;;;;;;;;;;;;;;2083327;28;20372;-90
2022/12/19 00:05:47;;;;;;;;;;;;;;;;;;2085356;28;19919;-90
2022/12/19 00:06:47;;;;;;;;;;;;;;;;;;2076190;28;19918;-90
2022/12/19 00:07:48;;;;;;;;;;;;;;;;;;2082698;28;20004;-90
2022/12/19 00:08:49;;;;;;;;;;;;;;;;;;2081366;28;19967;-90
2022/12/19 00:09:49;;;;;;;;;;;;;;;;;;2073095;28;19914;-90
2022/12/19 00:10:54;;;;;;;;;;;;;;;;;;2073630;28;19920;-90
2022/12/19 00:11:54;;;;;;;;;;;;;;;;;;2081329;28;19917;-90
2022/12/19 00:12:54;;;;;;;;;;;;;;;;;;2081254;28;19917;-90
2022/12/19 00:13:55;;;;;;;;;;;;;;;;;;2081730;28;20000;-90
2022/12/19 00:14:55;;;;;;;;;;;;;;;;;;2073333;28;19914;-90
2022/12/19 00:15:59;;;;;;;;;;;;;;;;;;2073369;28;19964;-90
2022/12/19 00:16:59;;;;;;;;;;;;;;;;;;2080634;28;19919;-90
2022/12/19 00:17:59;;;;;;;;;;;;;;;;;;2073029;28;19928;-91
2022/12/19 00:19:00;;;;;;;;;;;;;;;;;;2081045;28;20392;-90
2022/12/19 00:20:00;;;;;;;;;;;;;;;;;;2080859;28;19919;-91
2022/12/19 00:21:02;;;;;;;;;;;;;;;;;;2073137;28;20152;-90
2022/12/19 00:22:02;;;;;;;;;;;;;;;;;;2064750;28;20026;-90
2022/12/19 00:23:02;;;;;;;;;;;;;;;;;;2072944;28;20389;-91
2022/12/19 00:24:03;;;;;;;;;;;;;;;;;;2081562;28;20007;-90
2022/12/19 00:25:04;;;;;;;;;;;;;;;;;;2072566;28;19913;-90
2022/12/19 00:26:07;;;;;;;;;;;;;;;;;;2072781;28;19924;-91
2022/12/19 00:27:07;;;;;;;;;;;;;;;;;;2080905;28;20395;-90
2022/12/19 00:28:07;;;;;;;;;;;;;;;;;;2081099;28;19971;-90
2022/12/19 00:29:08;;;;;;;;;;;;;;;;;;2089381;28;20376;-90
2022/12/19 00:30:09;;;;;;;;;;;;;;;;;;2080819;28;19939;-90
2022/12/19 00:31:10;;;;;;;;;;;;;;;;;;2080515;28;19913;-90
2022/12/19 00:32:10;;;;;;;;;;;;;;;;;;2089102;28;19912;-90
2022/12/19 00:33:10;;;;;;;;;;;;;;;;;;2089459;28;20399;-90
2022/12/19 00:34:10;;;;;;;;;;;;;;;;;;2080942;28;19957;-90
2022/12/19 00:35:11;;;;;;;;;;;;;;;;;;2080579;28;19920;-90
2022/12/19 00:36:24;;;;;;;;;;;;;;;;;;2082185;28;19913;-90
2022/12/19 00:37:25;;;;;;;;;;;;;;;;;;2089884;28;19959;-90
2022/12/19 00:38:26;;;;;;;;;;;;;;;;;;2089892;28;19920;-90
2022/12/19 00:39:27;;;;;;;;;;;;;;;;;;2089728;28;19947;-90
2022/12/19 00:40:27;;;;;;;;;;;;;;;;;;2089753;28;19971;-89
2022/12/19 00:41:29;;;;;;;;;;;;;;;;;;2073554;28;19964;-90
2022/12/19 00:42:29;;;;;;;;;;;;;;;;;;2073541;28;19914;-90
2022/12/19 00:43:29;;;;;;;;;;;;;;;;;;2081123;28;20046;-90
2022/12/19 00:44:30;;;;;;;;;;;;;;;;;;2081325;28;19948;-90
2022/12/19 00:45:30;;;;;;;;;;;;;;;;;;2081660;28;19913;-90
2022/12/19 00:46:31;;;;;;;;;;;;;;;;;;2082195;28;20340;-90
2022/12/19 00:47:31;;;;;;;;;;;;;;;;;;2072711;28;19924;-90
2022/12/19 00:48:32;;;;;;;;;;;;;;;;;;2072619;28;19983;-90
2022/12/19 00:49:32;;;;;;;;;;;;;;;;;;2081835;28;20004;-89
2022/12/19 00:50:33;;;;;;;;;;;;;;;;;;2081415;28;20388;-89
2022/12/19 00:51:34;;;;;;;;;;;;;;;;;;2081492;28;19920;-89
2022/12/19 00:52:34;;;;;;;;;;;;;;;;;;2081526;28;19924;-90
2022/12/19 00:53:34;;;;;;;;;;;;;;;;;;2081758;28;19913;-88
2022/12/19 00:54:35;;;;;;;;;;;;;;;;;;2081528;28;19999;-91
2022/12/19 00:55:36;;;;;;;;;;;;;;;;;;2081223;28;19936;-90
2022/12/19 00:56:37;;;;;;;;;;;;;;;;;;2080941;28;19967;-90
2022/12/19 00:57:37;;;;;;;;;;;;;;;;;;2072877;28;20004;-91
2022/12/19 00:58:37;;;;;;;;;;;;;;;;;;2082091;28;19995;-91
2022/12/19 00:59:38;;;;;;;;;;;;;;;;;;2081265;28;19913;-90
2022/12/19 01:00:39;;;;;;;;;;;;;;;;;;2081163;28;19929;-91
2022/12/19 01:01:41;;;;;;;;;;;;;;;;;;2064687;28;20498;-91
2022/12/19 01:02:42;;;;;;;;;;;;;;;;;;2072876;28;19913;-90
2022/12/19 01:03:42;;;;;;;;;;;;;;;;;;2081364;28;19913;-89
2022/12/19 01:04:43;;;;;;;;;;;;;;;;;;2081722;28;20328;-90
2022/12/19 01:05:43;;;;;;;;;;;;;;;;;;2081177;28;20560;-89
2022/12/19 01:06:43;;;;;;;;;;;;;;;;;;2080937;28;20308;-89
2022/12/19 01:07:44;;;;;;;;;;;;;;;;;;1726899;28;10001188;-89
2022/12/19 01:08:44;;;;;;;;;;;;;;;;;;2071870;28;19921;-89
2022/12/19 01:09:44;;;;;;;;;;;;;;;;;;2073003;28;19992;-90
2022/12/19 01:10:46;;;;;;;;;;;;;;;;;;2072416;28;19917;-90
2022/12/19 01:13:05;;;;;;;;;;;;;;;;;;2081349;28;19921;-90
2022/12/19 01:14:05;;;;;;;;;;;;;;;;;;2072540;28;19918;-89
2022/12/19 01:15:06;;;;;;;;;;;;;;;;;;2072431;28;19968;-90
2022/12/19 01:16:07;;;;;;;;;;;;;;;;;;2088950;28;19912;-90
2022/12/19 01:17:08;;;;;;;;;;;;;;;;;;2089082;28;19919;-90
2022/12/19 01:18:09;;;;;;;;;;;;;;;;;;2091354;28;19920;-90
2022/12/19 01:19:09;;;;;;;;;;;;;;;;;;2087844;28;19939;-90
2022/12/19 01:20:10;;;;;;;;;;;;;;;;;;2091310;28;19917;-90
2022/12/19 01:21:10;;;;;;;;;;;;;;;;;;2090583;28;19949;-90
2022/12/19 01:22:11;;;;;;;;;;;;;;;;;;2088962;28;20465;-90
2022/12/19 01:23:12;;;;;;;;;;;;;;;;;;2081782;28;19917;-90
2022/12/19 01:24:12;;;;;;;;;;;;;;;;;;2079929;28;19924;-90
2022/12/19 01:25:13;;;;;;;;;;;;;;;;;;2068148;28;19952;-91
2022/12/19 01:26:13;;;;;;;;;;;;;;;;;;2074192;28;20317;-90
2022/12/19 01:27:14;;;;;;;;;;;;;;;;;;2081335;28;19948;-91
2022/12/19 01:28:14;;;;;;;;;;;;;;;;;;2081222;28;20410;-90
2022/12/19 01:29:14;;;;;;;;;;;;;;;;;;2073994;28;20489;-91
2022/12/19 01:30:15;;;;;;;;;;;;;;;;;;2082716;28;19988;-90
2022/12/19 01:31:15;;;;;;;;;;;;;;;;;;2082332;28;19917;-91
2022/12/19 01:32:15;;;;;;;;;;;;;;;;;;2089109;28;19951;-90
2022/12/19 01:33:17;;;;;;;;;;;;;;;;;;2098554;28;19947;-90
2022/12/19 01:34:17;;;;;;;;;;;;;;;;;;2099100;28;19935;-90
2022/12/19 01:35:17;;;;;;;;;;;;;;;;;;2097600;28;19959;-91
2022/12/19 01:36:18;;;;;;;;;;;;;;;;;;2081549;28;19948;-90
2022/12/19 01:37:18;;;;;;;;;;;;;;;;;;2081095;28;19913;-89
2022/12/19 01:38:19;;;;;;;;;;;;;;;;;;2081169;28;19913;-90
2022/12/19 01:39:20;;;;;;;;;;;;;;;;;;2075417;28;19918;-90
2022/12/19 01:40:20;;;;;;;;;;;;;;;;;;2090023;28;19928;-90
2022/12/19 01:41:21;;;;;;;;;;;;;;;;;;2091555;28;19927;-91
2022/12/19 01:42:21;;;;;;;;;;;;;;;;;;2088854;28;19924;-89
2022/12/19 01:43:23;;;;;;;;;;;;;;;;;;2088595;28;19996;-90
2022/12/19 01:44:25;;;;;;;;;;;;;;;;;;2084830;28;19963;-91
2022/12/19 01:45:29;;;;;;;;;;;;;;;;;;2073883;28;19917;-90
2022/12/19 01:46:48;;;;;;;;;;;;;;;;;;2073896;28;19917;-91
2022/12/19 01:47:52;;;;;;;;;;;;;;;;;;2078720;28;19913;-90
2022/12/19 01:48:52;;;;;;;;;;;;;;;;;;2081501;28;19991;-89
2022/12/19 01:49:53;;;;;;;;;;;;;;;;;;2090634;28;20263;-89
2022/12/19 01:51:01;;;;;;;;;;;;;;;;;;2090419;28;20335;-89
2022/12/19 01:52:04;;;;;;;;;;;;;;;;;;2092373;28;19939;-89
2022/12/19 01:53:06;;;;;;;;;;;;;;;;;;2095542;28;19917;-87
2022/12/19 01:54:11;;;;;;;;;;;;;;;;;;2086616;28;19917;-88
2022/12/19 01:55:12;;;;;;;;;;;;;;;;;;2070004;28;20239;-88
2022/12/19 01:56:12;;;;;;;;;;;;;;;;;;2069789;28;19924;-89
2022/12/19 01:57:14;;;;;;;;;;;;;;;;;;2076225;28;19917;-91
2022/12/19 01:58:15;;;;;;;;;;;;;;;;;;2075180;28;19948;-89
2022/12/19 01:59:18;;;;;;;;;;;;;;;;;;2075446;28;19949;-88
2022/12/19 02:00:18;;;;;;;;;;;;;;;;;;2076357;28;19952;-89
2022/12/19 02:01:19;;;;;;;;;;;;;;;;;;2084397;28;19917;-89
2022/12/19 02:02:24;;;;;;;;;;;;;;;;;;2086789;28;19924;-88
2022/12/19 02:03:31;;;;;;;;;;;;;;;;;;2094303;28;19943;-89
2022/12/19 02:04:32;;;;;;;;;;;;;;;;;;2071058;28;19922;-90
2022/12/19 02:05:32;;;;;;;;;;;;;;;;;;2068182;28;19917;-89
2022/12/19 02:06:33;;;;;;;;;;;;;;;;;;2076842;28;19914;-90
2022/12/19 02:07:34;;;;;;;;;;;;;;;;;;2066673;28;19917;-90
2022/12/19 02:08:35;;;;;;;;;;;;;;;;;;2073029;28;19921;-91
2022/12/19 02:09:36;;;;;;;;;;;;;;;;;;2081156;28;20006;-89
2022/12/19 02:10:36;;;;;;;;;;;;;;;;;;2080750;28;19913;-92
2022/12/19 02:11:36;;;;;;;;;;;;;;;;;;2080899;28;19936;-90
2022/12/19 02:12:38;;;;;;;;;;;;;;;;;;2073470;28;20345;-89
2022/12/19 02:13:39;;;;;;;;;;;;;;;;;;2080748;28;20325;-89
2022/12/19 02:14:40;;;;;;;;;;;;;;;;;;2089136;28;19947;-93
2022/12/19 02:15:46;;;;;;;;;;;;;;;;;;2089776;28;20013;-92
2022/12/19 02:17:07;;;;;;;;;;;;;;;;;;2088785;28;19924;-91
2022/12/19 02:18:15;;;;;;;;;;;;;;;;;;2081529;28;20556;-91
2022/12/19 02:19:15;;;;;;;;;;;;;;;;;;2081231;28;19928;-92
2022/12/19 02:20:18;;;;;;;;;;;;;;;;;;2081320;28;19992;-91
2022/12/19 02:21:28;;;;;;;;;;;;;;;;;;2081847;28;20012;-92
2022/12/19 02:22:37;;;;;;;;;;;;;;;;;;2080974;28;19913;-90
2022/12/19 02:23:43;;;;;;;;;;;;;;;;;;2079485;28;19940;-91
2022/12/19 02:24:49;;;;;;;;;;;;;;;;;;2065455;28;19924;-92
2022/12/19 02:26:08;;;;;;;;;;;;;;;;;;2065327;28;20244;-92
2022/12/19 02:27:08;;;;;;;;;;;;;;;;;;2083563;28;19913;-92
2022/12/19 02:28:23;;;;;;;;;;;;;;;;;;2081479;28;20474;-92
2022/12/19 02:29:42;;;;;;;;;;;;;;;;;;2074480;28;19984;-91
2022/12/19 02:30:42;;;;;;;;;;;;;;;;;;2075442;28;19913;-92
2022/12/19 02:31:47;;;;;;;;;;;;;;;;;;2072681;28;19913;-91
2022/12/19 02:32:47;;;;;;;;;;;;;;;;;;1381896;28;10001253;-90
2022/12/19 02:33:54;;;;;;;;;;;;;;;;;;2072649;28;20331;-91
2022/12/19 02:35:00;;;;;;;;;;;;;;;;;;2081255;28;19917;-91
2022/12/19 02:36:06;;;;;;;;;;;;;;;;;;2080477;28;20299;-91
2022/12/19 02:37:13;;;;;;;;;;;;;;;;;;2080449;28;20419;-91
2022/12/19 02:38:22;;;;;;;;;;;;;;;;;;2084406;28;19952;-91
2022/12/19 02:39:23;;;;;;;;;;;;;;;;;;2087449;28;19913;-91
2022/12/19 02:40:26;;;;;;;;;;;;;;;;;;2072144;28;20381;-92
2022/12/19 02:42:05;;;;;;;;;;;;;;;;;;2072432;28;19968;-91
2022/12/19 02:43:07;;;;;;;;;;;;;;;;;;2047336;29;19918;-89
2022/12/19 02:44:28;;;;;;;;;;;;;;;;;;2039599;29;19915;-90
2022/12/19 02:45:33;;;;;;;;;;;;;;;;;;2042209;29;20355;-91
2022/12/19 02:46:33;;;;;;;;;;;;;;;;;;2047340;29;19931;-89
2022/12/19 02:47:34;;;;;;;;;;;;;;;;;;2039547;29;19958;-91
2022/12/19 02:48:34;;;;;;;;;;;;;;;;;;2044645;28;20446;-91
2022/12/19 02:49:36;;;;;;;;;;;;;;;;;;2080268;28;20386;-91
2022/12/19 02:50:40;;;;;;;;;;;;;;;;;;2080797;28;19917;-90
2022/12/19 02:51:40;;;;;;;;;;;;;;;;;;2080352;28;20347;-90
2022/12/19 02:52:42;;;;;;;;;;;;;;;;;;2072062;28;20008;-90
2022/12/19 02:53:43;;;;;;;;;;;;;;;;;;2072000;28;19913;-90
2022/12/19 02:54:43;;;;;;;;;;;;;;;;;;2080813;28;20383;-89
2022/12/19 02:55:49;;;;;;;;;;;;;;;;;;2080008;28;20027;-90
2022/12/19 02:56:49;;;;;;;;;;;;;;;;;;2072037;28;19972;-91
2022/12/19 02:57:59;;;;;;;;;;;;;;;;;;2072111;28;20363;-91
2022/12/19 02:59:19;;;;;;;;;;;;;;;;;;2071922;28;19913;-91
2022/12/19 03:00:21;;;;;;;;;;;;;;;;;;2065823;28;19914;-92
2022/12/19 03:01:24;;;;;;;;;;;;;;;;;;2063983;28;19978;-91
2022/12/19 03:02:27;;;;;;;;;;;;;;;;;;2071970;28;19925;-91
2022/12/19 03:03:34;;;;;;;;;;;;;;;;;;2071941;28;20467;-91
2022/12/19 03:04:35;;;;;;;;;;;;;;;;;;2064588;28;20066;-91
2022/12/19 03:05:53;;;;;;;;;;;;;;;;;;2072064;28;20364;-91
2022/12/19 03:07:11;;;;;;;;;;;;;;;;;;2072103;28;19979;-91
2022/12/19 03:08:26;;;;;;;;;;;;;;;;;;2074254;28;20440;-91
2022/12/19 03:09:36;;;;;;;;;;;;;;;;;;2078451;28;19913;-91
2022/12/19 03:10:39;;;;;;;;;;;;;;;;;;2064877;28;20017;-91
2022/12/19 03:11:40;;;;;;;;;;;;;;;;;;2064712;28;20316;-91
2022/12/19 03:12:53;;;;;;;;;;;;;;;;;;2071980;28;19913;-91
2022/12/19 03:13:59;;;;;;;;;;;;;;;;;;2072236;28;19913;-91
2022/12/19 03:15:00;;;;;;;;;;;;;;;;;;2072701;28;19913;-91
2022/12/19 03:16:01;;;;;;;;;;;;;;;;;;2071836;28;19968;-91
2022/12/19 03:17:03;;;;;;;;;;;;;;;;;;2071929;28;19976;-91
2022/12/19 03:18:04;;;;;;;;;;;;;;;;;;2072391;28;20395;-92
2022/12/19 03:19:07;;;;;;;;;;;;;;;;;;2072101;28;19965;-91
2022/12/19 03:20:13;;;;;;;;;;;;;;;;;;2072300;28;19966;-90
2022/12/19 03:21:22;;;;;;;;;;;;;;;;;;2080836;28;20336;-91
2022/12/19 03:22:22;;;;;;;;;;;;;;;;;;2072372;28;20104;-90
2022/12/19 03:23:22;;;;;;;;;;;;;;;;;;2080294;28;19917;-91
2022/12/19 03:24:23;;;;;;;;;;;;;;;;;;2081195;28;20026;-91
2022/12/19 03:25:24;;;;;;;;;;;;;;;;;;2073178;28;19979;-92
2022/12/19 03:26:27;;;;;;;;;;;;;;;;;;2065880;28;20495;-92
2022/12/19 03:27:29;;;;;;;;;;;;;;;;;;2077559;28;19913;-89
2022/12/19 03:28:35;;;;;;;;;;;;;;;;;;2077688;28;19914;-91
2022/12/19 03:29:42;;;;;;;;;;;;;;;;;;2083849;28;20378;-91
2022/12/19 03:30:43;;;;;;;;;;;;;;;;;;2073667;28;20000;-92
2022/12/19 03:31:44;;;;;;;;;;;;;;;;;;2081958;28;19913;-93
2022/12/19 03:32:45;;;;;;;;;;;;;;;;;;2091115;28;20308;-93
2022/12/19 03:33:47;;;;;;;;;;;;;;;;;;2082887;28;19917;-93
2022/12/19 03:34:58;;;;;;;;;;;;;;;;;;2074763;28;20150;-91
2022/12/19 03:36:00;;;;;;;;;;;;;;;;;;2083065;28;19983;-92
2022/12/19 03:37:02;;;;;;;;;;;;;;;;;;2085280;28;20064;-90
2022/12/19 03:38:03;;;;;;;;;;;;;;;;;;2089071;28;19920;-95
2022/12/19 03:39:04;;;;;;;;;;;;;;;;;;2074979;28;20299;-91
2022/12/19 03:40:07;;;;;;;;;;;;;;;;;;2074388;28;20281;-91
2022/12/19 03:41:09;;;;;;;;;;;;;;;;;;2066604;28;19914;-92
2022/12/19 03:43:30;;;;;;;;;;;;;;;;;;1739455;28;10001221;-92
2022/12/19 03:44:32;;;;;;;;;;;;;;;;;;2082494;28;19913;-90
2022/12/19 03:45:35;;;;;;;;;;;;;;;;;;2078133;28;20019;-91
2022/12/19 03:46:44;;;;;;;;;;;;;;;;;;2074862;28;20400;-91
2022/12/19 03:47:49;;;;;;;;;;;;;;;;;;2085718;28;19924;-92
2022/12/19 03:48:51;;;;;;;;;;;;;;;;;;2090835;28;19966;-92
2022/12/19 03:49:51;;;;;;;;;;;;;;;;;;2090858;28;20004;-92
2022/12/19 03:51:01;;;;;;;;;;;;;;;;;;2082357;28;19913;-93
2022/12/19 03:52:04;;;;;;;;;;;;;;;;;;2082364;28;19971;-93
2022/12/19 03:53:14;;;;;;;;;;;;;;;;;;2082260;28;20375;-92
2022/12/19 03:54:28;;;;;;;;;;;;;;;;;;2075461;28;20836;-92
2022/12/19 03:55:45;;;;;;;;;;;;;;;;;;2082521;28;19956;-93
2022/12/19 03:56:49;;;;;;;;;;;;;;;;;;2076352;28;19917;-93
2022/12/19 03:57:55;;;;;;;;;;;;;;;;;;2083093;28;19979;-93
2022/12/19 03:58:59;;;;;;;;;;;;;;;;;;2090094;28;19972;-93
2022/12/19 04:00:03;;;;;;;;;;;;;;;;;;2083627;28;20348;-93
2022/12/19 04:01:04;;;;;;;;;;;;;;;;;;2074872;28;20026;-92
2022/12/19 04:02:04;;;;;;;;;;;;;;;;;;1729523;28;10186250;-93
2022/12/19 04:03:05;;;;;;;;;;;;;;;;;;2086929;28;19921;-93
2022/12/19 04:04:06;;;;;;;;;;;;;;;;;;2089431;28;20059;-92
2022/12/19 04:05:09;;;;;;;;;;;;;;;;;;2096457;28;19912;-93
2022/12/19 04:06:10;;;;;;;;;;;;;;;;;;2087481;28;19917;-93
2022/12/19 04:07:11;;;;;;;;;;;;;;;;;;2078078;28;19913;-93
2022/12/19 04:08:13;;;;;;;;;;;;;;;;;;2088326;28;19913;-93
2022/12/19 04:09:13;;;;;;;;;;;;;;;;;;2093841;28;20035;-95
2022/12/19 04:10:16;;;;;;;;;;;;;;;;;;2083918;28;20028;-93
2022/12/19 04:11:18;;;;;;;;;;;;;;;;;;2074618;28;19913;-94
2022/12/19 04:12:28;;;;;;;;;;;;;;;;;;2073984;28;19937;-92
2022/12/19 04:13:32;;;;;;;;;;;;;;;;;;2083946;28;19921;-92
2022/12/19 04:14:34;;;;;;;;;;;;;;;;;;2086163;28;20406;-92
2022/12/19 04:15:53;;;;;;;;;;;;;;;;;;2077454;28;19914;-92
2022/12/19 04:17:05;;;;;;;;;;;;;;;;;;2077038;28;19946;-91
2022/12/19 04:18:08;;;;;;;;;;;;;;;;;;2085799;28;19972;-92
2022/12/19 04:19:20;;;;;;;;;;;;;;;;;;2084047;28;19910;-91
2022/12/19 04:20:23;;;;;;;;;;;;;;;;;;2077144;28;19985;-92
2022/12/19 04:21:30;;;;;;;;;;;;;;;;;;2065559;28;19917;-92
2022/12/19 04:22:40;;;;;;;;;;;;;;;;;;2074578;28;19920;-92
2022/12/19 04:23:46;;;;;;;;;;;;;;;;;;2089838;28;19921;-93
2022/12/19 04:24:48;;;;;;;;;;;;;;;;;;2082491;28;19914;-92
2022/12/19 04:25:50;;;;;;;;;;;;;;;;;;2080809;28;19962;-92
2022/12/19 04:26:52;;;;;;;;;;;;;;;;;;2083360;28;19925;-91
2022/12/19 04:27:58;;;;;;;;;;;;;;;;;;2082050;28;19917;-92
2022/12/19 04:29:00;;;;;;;;;;;;;;;;;;2081830;28;19977;-92
2022/12/19 04:30:01;;;;;;;;;;;;;;;;;;2070939;28;20005;-92
2022/12/19 04:31:01;;;;;;;;;;;;;;;;;;2076406;28;20008;-92
2022/12/19 04:32:03;;;;;;;;;;;;;;;;;;2075683;28;20446;-92
2022/12/19 04:33:04;;;;;;;;;;;;;;;;;;2073839;28;19985;-91
2022/12/19 04:34:04;;;;;;;;;;;;;;;;;;2084428;28;20060;-91
2022/12/19 04:35:04;;;;;;;;;;;;;;;;;;2089860;28;19923;-93
2022/12/19 04:36:05;;;;;;;;;;;;;;;;;;2082005;28;20363;-93
2022/12/19 04:37:05;;;;;;;;;;;;;;;;;;2081583;28;19944;-91
2022/12/19 04:38:06;;;;;;;;;;;;;;;;;;2073376;28;19913;-92
2022/12/19 04:39:06;;;;;;;;;;;;;;;;;;2081649;28;19932;-93
2022/12/19 04:40:07;;;;;;;;;;;;;;;;;;2089998;28;19913;-93
2022/12/19 04:41:07;;;;;;;;;;;;;;;;;;2081537;28;20383;-91
2022/12/19 04:42:07;;;;;;;;;;;;;;;;;;2081664;28;19948;-92
2022/12/19 04:43:08;;;;;;;;;;;;;;;;;;2080910;28;20039;-92
2022/12/19 04:44:08;;;;;;;;;;;;;;;;;;2073359;28;19944;-91
2022/12/19 04:45:09;;;;;;;;;;;;;;;;;;2073657;28;19914;-91
2022/12/19 04:46:09;;;;;;;;;;;;;;;;;;2081640;28;19961;-92
2022/12/19 04:47:09;;;;;;;;;;;;;;;;;;2089743;28;20402;-92
2022/12/19 04:48:10;;;;;;;;;;;;;;;;;;2081397;28;19948;-90
2022/12/19 04:49:10;;;;;;;;;;;;;;;;;;2081445;28;20384;-93
2022/12/19 04:50:10;;;;;;;;;;;;;;;;;;2081500;28;19948;-92
2022/12/19 04:51:11;;;;;;;;;;;;;;;;;;2073277;28;19944;-91
2022/12/19 04:52:11;;;;;;;;;;;;;;;;;;2081689;28;19913;-92
2022/12/19 04:53:11;;;;;;;;;;;;;;;;;;2089980;28;19951;-91
2022/12/19 04:54:12;;;;;;;;;;;;;;;;;;2089946;28;19913;-93
2022/12/19 04:55:12;;;;;;;;;;;;;;;;;;2090036;28;20003;-92
2022/12/19 04:56:12;;;;;;;;;;;;;;;;;;2090076;28;19912;-92
2022/12/19 04:57:13;;;;;;;;;;;;;;;;;;2081423;28;19913;-92
2022/12/19 04:58:13;;;;;;;;;;;;;;;;;;2081809;28;20085;-92
2022/12/19 04:59:13;;;;;;;;;;;;;;;;;;2081803;28;20372;-93
2022/12/19 05:00:14;;;;;;;;;;;;;;;;;;2081786;28;19913;-91
2022/12/19 05:01:14;;;;;;;;;;;;;;;;;;2081565;28;19997;-92
2022/12/19 05:02:14;;;;;;;;;;;;;;;;;;2073412;28;19929;-93
2022/12/19 05:03:15;;;;;;;;;;;;;;;;;;2072696;28;19992;-92
2022/12/19 05:04:15;;;;;;;;;;;;;;;;;;2082188;28;19921;-91
2022/12/19 05:05:17;;;;;;;;;;;;;;;;;;2074721;28;19913;-92
2022/12/19 05:06:18;;;;;;;;;;;;;;;;;;2081717;28;19963;-92
2022/12/19 05:07:18;;;;;;;;;;;;;;;;;;2089816;28;19938;-93
2022/12/19 05:08:18;;;;;;;;;;;;;;;;;;2089324;28;19916;-92
2022/12/19 05:09:19;;;;;;;;;;;;;;;;;;2073351;28;19920;-92
2022/12/19 05:10:19;;;;;;;;;;;;;;;;;;2081635;28;19913;-91
2022/12/19 05:11:20;;;;;;;;;;;;;;;;;;2081482;28;19913;-92
2022/12/19 05:12:20;;;;;;;;;;;;;;;;;;2081161;28;19983;-90
2022/12/19 05:13:21;;;;;;;;;;;;;;;;;;2080891;28;19976;-92
2022/12/19 05:14:21;;;;;;;;;;;;;;;;;;2089325;28;19912;-91
2022/12/19 05:15:22;;;;;;;;;;;;;;;;;;2088980;28;20000;-91
2022/12/19 05:16:22;;;;;;;;;;;;;;;;;;2088827;28;19913;-91
2022/12/19 05:17:22;;;;;;;;;;;;;;;;;;1733453;28;10001587;-90
2022/12/19 05:18:23;;;;;;;;;;;;;;;;;;2072779;28;19913;-90
2022/12/19 05:19:26;;;;;;;;;;;;;;;;;;2081632;28;19913;-91
2022/12/19 05:20:27;;;;;;;;;;;;;;;;;;2080674;28;19921;-92
2022/12/19 05:21:27;;;;;;;;;;;;;;;;;;2080569;28;19913;-91
2022/12/19 05:22:27;;;;;;;;;;;;;;;;;;2080055;28;19913;-91
2022/12/19 05:23:28;;;;;;;;;;;;;;;;;;2072125;28;19926;-90
2022/12/19 05:24:28;;;;;;;;;;;;;;;;;;2080610;28;20427;-90
2022/12/19 05:25:28;;;;;;;;;;;;;;;;;;2080534;28;20437;-91
2022/12/19 05:26:28;;;;;;;;;;;;;;;;;;2079320;28;20372;-90
2022/12/19 05:27:29;;;;;;;;;;;;;;;;;;2068684;28;20052;-91
2022/12/19 05:28:29;;;;;;;;;;;;;;;;;;2072071;28;20376;-91
2022/12/19 05:29:30;;;;;;;;;;;;;;;;;;2072151;28;19924;-91
2022/12/19 05:30:30;;;;;;;;;;;;;;;;;;2072140;28;20036;-91
2022/12/19 05:31:30;;;;;;;;;;;;;;;;;;2071734;28;19913;-90
2022/12/19 05:32:31;;;;;;;;;;;;;;;;;;2072133;28;19913;-90
2022/12/19 05:33:32;;;;;;;;;;;;;;;;;;2072547;28;19952;-91
2022/12/19 05:34:32;;;;;;;;;;;;;;;;;;2064451;28;20317;-91
2022/12/19 05:35:33;;;;;;;;;;;;;;;;;;2072922;28;19913;-90
2022/12/19 05:36:33;;;;;;;;;;;;;;;;;;2075154;28;20004;-90
2022/12/19 05:37:34;;;;;;;;;;;;;;;;;;2074334;28;19957;-89
2022/12/19 05:38:34;;;;;;;;;;;;;;;;;;2073992;28;19968;-90
2022/12/19 05:39:35;;;;;;;;;;;;;;;;;;2073085;28;19921;-91
2022/12/19 05:40:35;;;;;;;;;;;;;;;;;;1718476;28;10248371;-91
2022/12/19 05:41:35;;;;;;;;;;;;;;;;;;2063634;28;19914;-91
2022/12/19 05:42:35;;;;;;;;;;;;;;;;;;2063561;28;20400;-91
2022/12/19 05:43:36;;;;;;;;;;;;;;;;;;2063335;28;19918;-90
2022/12/19 05:44:36;;;;;;;;;;;;;;;;;;2072498;28;20280;-91
2022/12/19 05:45:37;;;;;;;;;;;;;;;;;;2063676;28;19936;-91
2022/12/19 05:46:37;;;;;;;;;;;;;;;;;;2055483;28;19964;-91
2022/12/19 05:47:38;;;;;;;;;;;;;;;;;;2055498;28;20030;-91
2022/12/19 05:48:38;;;;;;;;;;;;;;;;;;2063480;28;20013;-91
2022/12/19 05:49:38;;;;;;;;;;;;;;;;;;2072360;28;20399;-91
2022/12/19 05:50:39;;;;;;;;;;;;;;;;;;2063606;28;20377;-91
2022/12/19 05:51:40;;;;;;;;;;;;;;;;;;2071547;28;19914;-91
2022/12/19 05:52:40;;;;;;;;;;;;;;;;;;2071970;28;19913;-91
2022/12/19 05:53:41;;;;;;;;;;;;;;;;;;2071955;28;19959;-91
2022/12/19 05:54:41;;;;;;;;;;;;;;;;;;2071311;28;19960;-90
2022/12/19 05:55:41;;;;;;;;;;;;;;;;;;2071493;28;20386;-90
2022/12/19 05:56:42;;;;;;;;;;;;;;;;;;2064040;28;19942;-90
2022/12/19 05:57:42;;;;;;;;;;;;;;;;;;2072090;28;20245;-91
2022/12/19 05:58:43;;;;;;;;;;;;;;;;;;2073020;28;19967;-91
2022/12/19 05:59:44;;;;;;;;;;;;;;;;;;2065301;28;20013;-90
2022/12/19 06:00:44;;;;;;;;;;;;;;;;;;2075180;28;19957;-91
2022/12/19 06:01:44;;;;;;;;;;;;;;;;;;2076841;28;19918;-91
2022/12/19 06:02:45;;;;;;;;;;;;;;;;;;2066232;28;20017;-92
2022/12/19 06:03:47;;;;;;;;;;;;;;;;;;2071990;28;20559;-91
2022/12/19 06:04:47;;;;;;;;;;;;;;;;;;2072033;28;19914;-90
2022/12/19 06:05:47;;;;;;;;;;;;;;;;;;2072291;28;19988;-91
2022/12/19 06:06:48;;;;;;;;;;;;;;;;;;2071933;28;19920;-90
2022/12/19 06:07:48;;;;;;;;;;;;;;;;;;2063808;28;19921;-90
2022/12/19 06:08:55;;;;;;;;;;;;;;;;;;2072021;28;20454;-90
2022/12/19 06:09:55;;;;;;;;;;;;;;;;;;2072002;28;19917;-90
2022/12/19 06:10:57;;;;;;;;;;;;;;;;;;2072011;28;19936;-90
2022/12/19 06:11:57;;;;;;;;;;;;;;;;;;2071884;28;20017;-90
2022/12/19 06:12:57;;;;;;;;;;;;;;;;;;2071810;28;20317;-90
2022/12/19 06:13:58;;;;;;;;;;;;;;;;;;2071868;28;19964;-90
2022/12/19 06:14:58;;;;;;;;;;;;;;;;;;2071835;28;19913;-90
2022/12/19 06:15:59;;;;;;;;;;;;;;;;;;2063944;28;19942;-90
2022/12/19 06:16:59;;;;;;;;;;;;;;;;;;2063701;28;19914;-90
2022/12/19 06:18:00;;;;;;;;;;;;;;;;;;2063692;28;19952;-89
2022/12/19 06:19:03;;;;;;;;;;;;;;;;;;2062977;28;19914;-89
2022/12/19 06:20:07;;;;;;;;;;;;;;;;;;2071771;28;19914;-89
2022/12/19 06:21:09;;;;;;;;;;;;;;;;;;2071811;28;19913;-89
2022/12/19 06:22:10;;;;;;;;;;;;;;;;;;2072681;28;19921;-89
2022/12/19 06:23:10;;;;;;;;;;;;;;;;;;2063561;28;20365;-90
2022/12/19 06:24:10;;;;;;;;;;;;;;;;;;2063814;28;19914;-90
2022/12/19 06:25:10;;;;;;;;;;;;;;;;;;2072522;28;20387;-90
2022/12/19 06:26:12;;;;;;;;;;;;;;;;;;2063590;28;19985;-90
2022/12/19 06:27:12;;;;;;;;;;;;;;;;;;2055502;28;20323;-90
2022/12/19 06:28:12;;;;;;;;;;;;;;;;;;2064058;28;19913;-90
2022/12/19 06:29:18;;;;;;;;;;;;;;;;;;2072049;28;20084;-91
2022/12/19 06:30:18;;;;;;;;;;;;;;;;;;2064425;28;19921;-91
2022/12/19 06:31:22;;;;;;;;;;;;;;;;;;2072085;28;20414;-90
2022/12/19 06:32:26;;;;;;;;;;;;;;;;;;2071860;28;19920;-91
2022/12/19 06:33:27;;;;;;;;;;;;;;;;;;2071647;28;19924;-91
2022/12/19 06:34:30;;;;;;;;;;;;;;;;;;2064181;28;20005;-91
2022/12/19 06:35:30;;;;;;;;;;;;;;;;;;2063972;28;20254;-90
2022/12/19 06:36:31;;;;;;;;;;;;;;;;;;2063614;28;19914;-90
2022/12/19 06:37:31;;;;;;;;;;;;;;;;;;2055662;28;19970;-90
2022/12/19 06:38:32;;;;;;;;;;;;;;;;;;2055510;28;19915;-90
2022/12/19 06:39:32;;;;;;;;;;;;;;;;;;2063610;28;19914;-90
2022/12/19 06:43:11;;;;;;;;;;;;;;;;;;2072286;28;20020;-90
2022/12/19 06:44:14;;;;;;;;;;;;;;;;;;2063641;28;20410;-89
2022/12/19 06:45:14;;;;;;;;;;;;;;;;;;2063944;28;19914;-90
2022/12/19 06:46:14;;;;;;;;;;;;;;;;;;2063811;28;19989;-91
2022/12/19 06:47:16;;;;;;;;;;;;;;;;;;2063578;28;20015;-89
2022/12/19 06:48:17;;;;;;;;;;;;;;;;;;2069481;28;19965;-92
2022/12/19 06:49:18;;;;;;;;;;;;;;;;;;2074941;28;19917;-91
2022/12/19 06:50:18;;;;;;;;;;;;;;;;;;2074614;28;19922;-91
2022/12/19 06:51:18;;;;;;;;;;;;;;;;;;2063349;28;20297;-92
2022/12/19 06:52:19;;;;;;;;;;;;;;;;;;2059535;28;19918;-91
2022/12/19 06:53:19;;;;;;;;;;;;;;;;;;2058515;28;19917;-92
2022/12/19 06:54:20;;;;;;;;;;;;;;;;;;2060254;28;19914;-91
2022/12/19 06:55:20;;;;;;;;;;;;;;;;;;2061062;28;20459;-92
2022/12/19 06:56:20;;;;;;;;;;;;;;;;;;2069761;28;19913;-91
2022/12/19 06:57:21;;;;;;;;;;;;;;;;;;2067374;28;19925;-90
2022/12/19 06:58:21;;;;;;;;;;;;;;;;;;2063450;28;19921;-94
2022/12/19 06:59:22;;;;;;;;;;;;;;;;;;2061206;28;19978;-92
2022/12/19 07:00:22;;;;;;;;;;;;;;;;;;2060417;28;19918;-91
2022/12/19 07:01:41;;;;;;;;;;;;;;;;;;2067710;28;20396;-92
2022/12/19 07:02:43;;;;;;;;;;;;;;;;;;2059572;28;19952;-91
2022/12/19 07:03:44;;;;;;;;;;;;;;;;;;2064264;28;19917;-90
2022/12/19 07:04:50;;;;;;;;;;;;;;;;;;2056688;28;20082;-92
2022/12/19 07:05:51;;;;;;;;;;;;;;;;;;2056829;28;19914;-90
2022/12/19 07:06:51;;;;;;;;;;;;;;;;;;2056223;28;19914;-90
2022/12/19 07:08:12;;;;;;;;;;;;;;;;;;2057074;28;19914;-90
2022/12/19 07:09:12;;;;;;;;;;;;;;;;;;2064483;28;20017;-92
2022/12/19 07:10:13;;;;;;;;;;;;;;;;;;2064422;28;19914;-91